createdAt,value
2022-07-28T00:00:54.253Z,0.55
2022-07-28T00:03:21.201Z,0.55
2022-07-28T00:05:49.476Z,0.80
2022-07-28T00:08:17.160Z,0.55
2022-07-28T00:10:44.230Z,0.82
2022-07-28T00:13:11.252Z,0.77
2022-07-28T00:15:38.317Z,0.50
2022-07-28T00:18:05.201Z,0.52
2022-07-28T00:20:32.167Z,0.68
2022-07-28T00:22:59.090Z,0.60
2022-07-28T00:25:26.035Z,0.50
2022-07-28T00:27:53.394Z,0.80
2022-07-28T00:30:20.492Z,0.60
2022-07-28T00:32:47.628Z,0.95
2022-07-28T00:35:14.938Z,0.70
2022-07-28T00:37:42.934Z,0.60
2022-07-28T00:40:10.508Z,0.50
2022-07-28T00:42:37.573Z,0.55
2022-07-28T00:45:05.327Z,0.70
2022-07-28T00:47:33.701Z,0.50
2022-07-28T00:50:03.053Z,0.60
2022-07-28T00:52:30.321Z,0.88
2022-07-28T00:54:58.409Z,0.63
2022-07-28T00:57:25.289Z,0.52
2022-07-28T00:59:52.164Z,0.80
2022-07-28T01:02:19.821Z,0.60
2022-07-28T01:04:47.426Z,0.50
2022-07-28T01:07:34.842Z,0.77
2022-07-28T01:10:10.604Z,0.80
2022-07-28T01:13:00.300Z,0.70
2022-07-28T01:15:36.701Z,0.50
2022-07-28T01:18:10.471Z,0.50
2022-07-28T01:20:47.900Z,0.77
2022-07-28T01:23:33.251Z,0.65
2022-07-28T01:26:30.490Z,0.70
2022-07-28T01:29:28.060Z,1.05
2022-07-28T01:32:08.598Z,0.82
2022-07-28T01:34:52.237Z,0.60
2022-07-28T01:37:25.006Z,0.60
2022-07-28T01:39:56.165Z,0.93
2022-07-28T01:42:27.782Z,0.70
2022-07-28T01:44:57.757Z,0.52
2022-07-28T01:47:28.053Z,0.70
2022-07-28T01:49:56.932Z,0.80
2022-07-28T01:52:25.104Z,0.80
2022-07-28T01:54:53.691Z,0.70
2022-07-28T01:57:21.376Z,0.70
2022-07-28T01:59:49.765Z,0.45
2022-07-28T02:02:18.815Z,0.95
2022-07-28T02:04:48.334Z,0.43
2022-07-28T02:07:17.979Z,0.80
2022-07-28T02:09:47.231Z,0.60
2022-07-28T02:12:17.107Z,1.02
2022-07-28T02:14:48.683Z,1.00
2022-07-28T02:17:19.606Z,0.70
2022-07-28T02:19:48.707Z,0.52
2022-07-28T02:22:17.008Z,0.70
2022-07-28T02:24:45.540Z,0.57
2022-07-28T02:27:21.110Z,0.70
2022-07-28T02:29:51.641Z,0.77
2022-07-28T02:32:40.973Z,0.47
2022-07-28T02:35:44.769Z,0.70
2022-07-28T02:38:24.645Z,0.70
2022-07-28T02:40:59.571Z,0.70
2022-07-28T02:43:49.425Z,0.77
2022-07-28T02:46:22.196Z,0.57
2022-07-28T02:48:52.405Z,0.47
2022-07-28T02:51:23.460Z,0.82
2022-07-28T02:53:52.032Z,0.70
2022-07-28T02:56:19.948Z,0.95
2022-07-28T02:58:47.250Z,0.77
2022-07-28T03:01:18.277Z,0.82
2022-07-28T03:03:48.210Z,0.63
2022-07-28T03:06:20.315Z,0.82
2022-07-28T03:08:57.510Z,0.85
2022-07-28T03:11:24.834Z,0.60
2022-07-28T03:13:52.023Z,0.75
2022-07-28T03:16:19.341Z,0.45
2022-07-28T03:18:46.547Z,0.70
2022-07-28T03:21:13.436Z,0.73
2022-07-28T03:23:43.141Z,0.40
2022-07-28T03:26:16.407Z,0.82
2022-07-28T03:28:44.972Z,0.50
2022-07-28T03:31:13.609Z,1.15
2022-07-28T03:33:40.897Z,0.50
2022-07-28T03:36:15.548Z,0.45
2022-07-28T03:38:54.048Z,0.80
2022-07-28T03:41:22.183Z,0.57
2022-07-28T03:43:50.312Z,0.32
2022-07-28T03:46:17.553Z,0.57
2022-07-28T03:48:44.798Z,0.70
2022-07-28T03:51:12.103Z,0.68
2022-07-28T03:53:40.386Z,0.70
2022-07-28T03:56:07.289Z,0.70
2022-07-28T03:58:34.402Z,0.40
2022-07-28T04:01:01.344Z,0.57
2022-07-28T04:03:42.726Z,0.40
2022-07-28T04:06:14.007Z,0.45
2022-07-28T04:08:41.294Z,0.60
2022-07-28T04:11:08.407Z,0.82
2022-07-28T04:13:36.749Z,0.50
2022-07-28T04:16:04.410Z,0.50
2022-07-28T04:18:34.385Z,0.52
2022-07-28T04:21:04.468Z,0.55
2022-07-28T04:23:31.464Z,0.47
2022-07-28T04:26:17.557Z,0.80
2022-07-28T04:29:03.422Z,1.17
2022-07-28T04:31:30.811Z,0.55
2022-07-28T04:33:57.918Z,0.73
2022-07-28T04:36:26.211Z,0.47
2022-07-28T04:38:54.232Z,0.40
2022-07-28T04:41:21.150Z,0.60
2022-07-28T04:43:48.466Z,0.57
2022-07-28T04:46:15.570Z,0.50
2022-07-28T04:48:43.136Z,0.45
2022-07-28T04:51:10.333Z,0.82
2022-07-28T04:53:38.960Z,0.60
2022-07-28T04:56:06.058Z,0.40
2022-07-28T04:58:33.154Z,0.40
2022-07-28T05:01:00.247Z,0.77
2022-07-28T05:03:27.188Z,0.50
2022-07-28T05:05:55.133Z,0.40
2022-07-28T05:08:26.333Z,0.60
2022-07-28T05:10:55.157Z,0.70
2022-07-28T05:13:22.270Z,0.60
2022-07-28T05:15:49.471Z,0.40
2022-07-28T05:18:16.723Z,0.50
2022-07-28T05:20:43.593Z,0.60
2022-07-28T05:23:11.689Z,0.50
2022-07-28T05:25:39.131Z,0.60
2022-07-28T05:28:05.990Z,0.52
2022-07-28T05:30:33.013Z,0.50
2022-07-28T05:33:01.863Z,0.50
2022-07-28T05:35:29.833Z,0.60
2022-07-28T05:37:57.001Z,0.40
2022-07-28T05:40:23.873Z,0.52
2022-07-28T05:42:50.740Z,0.43
2022-07-28T05:45:17.957Z,0.50
2022-07-28T05:47:48.023Z,0.60
2022-07-28T05:50:16.973Z,0.70
2022-07-28T05:52:44.941Z,0.73
2022-07-28T05:55:12.235Z,0.50
2022-07-28T05:57:40.207Z,0.50
2022-07-28T06:00:19.584Z,0.50
2022-07-28T06:02:49.578Z,0.63
2022-07-28T06:05:18.116Z,0.65
2022-07-28T06:07:46.599Z,0.55
2022-07-28T06:10:15.988Z,0.75
2022-07-28T06:12:44.475Z,0.55
2022-07-28T06:15:23.202Z,0.50
2022-07-28T06:17:52.707Z,0.52
2022-07-28T06:20:21.608Z,0.40
2022-07-28T06:22:51.244Z,0.60
2022-07-28T06:25:20.412Z,0.80
2022-07-28T06:27:48.916Z,0.45
2022-07-28T06:30:16.568Z,0.50
2022-07-28T06:32:44.392Z,0.70
2022-07-28T06:35:14.772Z,0.52
2022-07-28T06:37:44.805Z,0.73
2022-07-28T06:40:13.105Z,0.73
2022-07-28T06:42:42.510Z,0.40
2022-07-28T06:45:10.430Z,0.80
2022-07-28T06:47:53.234Z,0.60
2022-07-28T06:50:26.135Z,0.57
2022-07-28T06:52:58.715Z,0.60
2022-07-28T06:55:31.330Z,1.15
2022-07-28T06:58:02.391Z,0.73
2022-07-28T07:00:30.153Z,0.50
2022-07-28T07:03:00.601Z,0.60
2022-07-28T07:05:32.465Z,0.50
2022-07-28T07:08:00.049Z,0.40
2022-07-28T07:10:27.964Z,0.50
2022-07-28T07:12:55.367Z,0.55
2022-07-28T07:15:22.574Z,0.30
2022-07-28T07:17:49.755Z,0.63
2022-07-28T07:20:18.398Z,0.60
2022-07-28T07:22:47.340Z,0.50
2022-07-28T07:25:18.695Z,0.60
2022-07-28T07:30:14.849Z,0.60
2022-07-28T07:32:42.202Z,0.68
2022-07-28T07:35:09.989Z,0.47
2022-07-28T07:37:37.709Z,0.52
2022-07-28T07:40:05.901Z,0.65
2022-07-28T07:42:32.941Z,0.80
2022-07-28T07:44:59.855Z,0.88
2022-07-28T07:47:26.978Z,0.40
2022-07-28T07:49:54.156Z,0.43
2022-07-28T07:52:21.100Z,0.55
2022-07-28T07:54:48.554Z,0.50
2022-07-28T07:57:15.624Z,0.82
2022-07-28T07:59:42.655Z,0.50
2022-07-28T08:02:09.842Z,1.00
2022-07-28T08:04:37.784Z,0.60
2022-07-28T08:07:06.481Z,0.50
2022-07-28T08:09:34.079Z,0.60
2022-07-28T08:12:01.334Z,1.02
2022-07-28T08:14:29.629Z,0.50
2022-07-28T08:16:59.265Z,0.52
2022-07-28T08:19:26.799Z,0.60
2022-07-28T08:21:55.474Z,0.47
2022-07-28T08:24:33.144Z,0.68
2022-07-28T08:27:01.999Z,0.50
2022-07-28T08:29:29.452Z,1.33
2022-07-28T08:31:56.729Z,0.40
2022-07-28T08:34:31.186Z,0.70
2022-07-28T08:37:02.142Z,0.47
2022-07-28T08:39:30.069Z,0.50
2022-07-28T08:42:07.176Z,0.50
2022-07-28T08:44:51.534Z,0.40
2022-07-28T08:47:20.133Z,0.50
2022-07-28T08:49:48.998Z,0.50
2022-07-28T08:52:20.434Z,0.63
2022-07-28T08:54:49.013Z,0.75
2022-07-28T08:57:30.787Z,0.57
2022-07-28T08:59:57.773Z,0.40
2022-07-28T09:02:29.395Z,0.50
2022-07-28T09:04:58.156Z,0.63
2022-07-28T09:07:26.905Z,0.65
2022-07-28T09:10:02.249Z,0.50
2022-07-28T09:12:29.772Z,0.68
2022-07-28T09:14:57.020Z,0.50
2022-07-28T09:17:24.255Z,0.68
2022-07-28T09:19:51.383Z,0.70
2022-07-28T09:22:18.306Z,0.65
2022-07-28T09:24:45.836Z,0.55
2022-07-28T09:27:14.601Z,0.50
2022-07-28T09:29:49.286Z,0.57
2022-07-28T09:32:19.010Z,0.57
2022-07-28T09:34:47.809Z,0.50
2022-07-28T09:37:27.029Z,0.50
2022-07-28T09:39:59.526Z,0.60
2022-07-28T09:42:44.651Z,0.40
2022-07-28T09:45:27.012Z,0.60
2022-07-28T09:48:20.623Z,0.70
2022-07-28T09:50:47.660Z,0.73
2022-07-28T09:53:22.395Z,0.55
2022-07-28T09:56:01.225Z,0.55
2022-07-28T09:58:32.580Z,1.23
2022-07-28T10:01:09.313Z,0.60
2022-07-28T10:03:41.133Z,0.60
2022-07-28T10:06:09.117Z,0.57
2022-07-28T10:08:44.049Z,0.77
2022-07-28T10:11:12.440Z,0.80
2022-07-28T10:14:09.062Z,0.60
2022-07-28T10:16:42.353Z,0.95
2022-07-28T10:19:10.032Z,0.85
2022-07-28T10:21:44.268Z,0.60
2022-07-28T10:24:21.017Z,0.73
2022-07-28T10:26:48.657Z,0.90
2022-07-28T10:29:18.557Z,0.50
2022-07-28T10:31:46.324Z,0.70
2022-07-28T10:34:24.787Z,0.60
2022-07-28T10:36:55.531Z,0.65
2022-07-28T10:39:25.289Z,0.90
2022-07-28T10:41:53.095Z,0.68
2022-07-28T10:44:20.167Z,0.65
2022-07-28T10:46:47.523Z,0.40
2022-07-28T10:49:14.886Z,0.60
2022-07-28T10:52:02.669Z,0.80
2022-07-28T10:54:41.161Z,0.63
2022-07-28T10:57:12.290Z,0.52
2022-07-28T11:02:43.800Z,0.70
2022-07-28T11:05:27.837Z,0.80
2022-07-28T11:07:55.558Z,0.50
2022-07-28T11:10:23.359Z,0.70
2022-07-28T11:12:53.281Z,0.55
2022-07-28T11:15:28.400Z,0.60
2022-07-28T11:18:04.360Z,0.75
2022-07-28T11:20:53.217Z,0.77
2022-07-28T11:23:39.454Z,0.60
2022-07-28T11:26:24.337Z,0.80
2022-07-28T11:28:57.618Z,0.73
2022-07-28T11:31:46.535Z,0.88
2022-07-28T11:34:16.450Z,0.40
2022-07-28T11:37:15.140Z,0.60
2022-07-28T11:39:44.074Z,0.85
2022-07-28T11:42:31.072Z,0.85
2022-07-28T11:45:35.102Z,1.02
2022-07-28T11:48:15.457Z,1.15
2022-07-28T11:50:42.935Z,0.80
2022-07-28T11:53:10.656Z,0.55
2022-07-28T11:55:49.375Z,0.65
2022-07-28T11:58:25.801Z,0.95
2022-07-28T12:01:17.861Z,0.75
2022-07-28T12:03:54.947Z,0.68
2022-07-28T12:06:35.693Z,0.70
2022-07-28T12:09:04.507Z,0.57
2022-07-28T12:11:35.928Z,0.70
2022-07-28T12:14:05.496Z,0.60
2022-07-28T12:16:34.027Z,0.52
2022-07-28T12:19:03.277Z,0.70
2022-07-28T12:21:49.607Z,0.50
2022-07-28T12:24:21.122Z,0.52
2022-07-28T12:26:50.279Z,0.60
2022-07-28T12:29:19.807Z,0.50
2022-07-28T12:32:01.081Z,0.60
2022-07-28T12:34:33.449Z,0.57
2022-07-28T12:37:02.369Z,0.80
2022-07-28T12:39:31.022Z,0.50
2022-07-28T12:42:09.595Z,0.80
2022-07-28T12:44:38.083Z,1.10
2022-07-28T12:47:10.786Z,1.00
2022-07-28T12:49:39.738Z,0.70
2022-07-28T12:52:18.803Z,0.80
2022-07-28T12:54:53.504Z,0.60
2022-07-28T12:57:51.031Z,0.85
2022-07-28T13:00:26.091Z,0.65
2022-07-28T13:02:56.450Z,0.90
2022-07-28T13:05:31.326Z,0.77
2022-07-28T13:08:07.154Z,0.90
2022-07-28T13:10:33.976Z,0.70
2022-07-28T13:13:06.515Z,0.80
2022-07-28T13:15:33.820Z,0.55
2022-07-28T13:18:00.776Z,0.57
2022-07-28T13:20:28.225Z,1.10
2022-07-28T13:22:57.502Z,0.60
2022-07-28T13:25:24.644Z,0.70
2022-07-28T13:27:55.435Z,0.75
2022-07-28T13:30:23.561Z,0.60
2022-07-28T13:32:50.617Z,0.50
2022-07-28T13:35:18.951Z,0.45
2022-07-28T13:37:47.714Z,0.75
2022-07-28T13:40:14.664Z,0.50
2022-07-28T13:42:53.128Z,0.75
2022-07-28T13:45:24.154Z,0.63
2022-07-28T13:47:52.023Z,0.70
2022-07-28T13:50:19.709Z,0.60
2022-07-28T13:52:47.192Z,0.57
2022-07-28T13:55:16.056Z,0.68
2022-07-28T13:57:46.597Z,0.70
2022-07-28T14:00:17.987Z,0.50
2022-07-28T14:02:48.642Z,0.63
2022-07-28T14:05:16.183Z,0.63
2022-07-28T14:07:48.785Z,0.60
2022-07-28T14:10:19.368Z,0.50
2022-07-28T14:12:46.627Z,0.65
2022-07-28T14:15:13.588Z,0.65
2022-07-28T14:17:43.849Z,0.47
2022-07-28T14:20:14.033Z,0.63
2022-07-28T14:22:41.736Z,0.50
2022-07-28T14:25:09.555Z,0.90
2022-07-28T14:27:36.477Z,0.75
2022-07-28T14:30:04.424Z,0.57
2022-07-28T14:32:34.524Z,1.05
2022-07-28T14:35:01.956Z,0.98
2022-07-28T14:37:36.223Z,0.77
2022-07-28T14:40:14.628Z,0.70
2022-07-28T14:42:41.723Z,0.63
2022-07-28T14:45:08.997Z,0.60
2022-07-28T14:47:45.132Z,0.80
2022-07-28T14:50:12.798Z,0.95
2022-07-28T14:52:39.783Z,0.60
2022-07-28T14:55:06.956Z,0.82
2022-07-28T14:57:51.882Z,0.63
2022-07-28T15:00:21.986Z,0.63
2022-07-28T15:02:48.920Z,0.60
2022-07-28T15:05:15.759Z,0.55
2022-07-28T15:07:42.615Z,0.93
2022-07-28T15:10:10.593Z,0.70
2022-07-28T15:12:37.999Z,0.60
2022-07-28T15:15:05.701Z,0.65
2022-07-28T15:17:32.775Z,0.50
2022-07-28T15:19:59.609Z,0.80
2022-07-28T15:22:26.636Z,0.60
2022-07-28T15:24:54.136Z,1.02
2022-07-28T15:27:20.882Z,0.70
2022-07-28T15:29:52.276Z,0.70
2022-07-28T15:32:20.401Z,0.60
2022-07-28T15:34:55.302Z,0.75
2022-07-28T15:37:21.988Z,0.70
2022-07-28T15:39:48.874Z,0.60
2022-07-28T15:42:15.602Z,0.63
2022-07-28T15:44:42.557Z,0.50
2022-07-28T15:47:09.364Z,0.70
2022-07-28T15:49:36.197Z,0.68
2022-07-28T15:52:04.365Z,0.70
2022-07-28T15:54:31.366Z,0.75
2022-07-28T15:56:58.250Z,0.60
2022-07-28T15:59:26.738Z,0.68
2022-07-28T16:02:17.445Z,0.70
2022-07-28T16:04:47.190Z,0.95
2022-07-28T16:07:22.263Z,0.80
2022-07-28T16:09:51.246Z,0.98
2022-07-28T16:12:18.275Z,0.57
2022-07-28T16:14:45.176Z,0.65
2022-07-28T16:17:12.294Z,0.65
2022-07-28T16:19:48.884Z,0.68
2022-07-28T16:22:18.785Z,0.82
2022-07-28T16:24:47.416Z,0.80
2022-07-28T16:27:14.887Z,0.80
2022-07-28T16:29:42.662Z,0.90
2022-07-28T16:32:09.996Z,1.10
2022-07-28T16:34:36.848Z,1.02
2022-07-28T16:37:04.973Z,1.00
2022-07-28T16:39:34.286Z,0.90
2022-07-28T16:42:02.930Z,1.17
2022-07-28T16:44:30.361Z,0.85
2022-07-28T16:46:57.152Z,0.90
2022-07-28T16:49:24.610Z,0.98
2022-07-28T16:51:51.517Z,1.20
2022-07-28T16:54:18.899Z,1.65
2022-07-28T16:56:46.169Z,1.60
2022-07-28T16:59:12.934Z,1.65
2022-07-28T17:01:45.314Z,2.03
2022-07-28T17:04:15.158Z,1.65
2022-07-28T17:06:42.385Z,1.88
2022-07-28T17:09:09.603Z,1.70
2022-07-28T17:11:36.403Z,1.40
2022-07-28T17:14:04.717Z,1.52
2022-07-28T17:16:32.075Z,1.75
2022-07-28T17:18:59.507Z,1.40
2022-07-28T17:21:26.935Z,0.98
2022-07-28T17:23:53.886Z,1.20
2022-07-28T17:29:08.793Z,1.63
2022-07-28T17:31:36.397Z,1.02
2022-07-28T17:34:03.284Z,1.33
2022-07-28T17:36:34.017Z,0.80
2022-07-28T17:39:01.641Z,1.08
2022-07-28T17:41:28.899Z,1.27
2022-07-28T17:43:55.754Z,1.27
2022-07-28T17:46:22.934Z,1.20
2022-07-28T17:48:53.389Z,1.10
2022-07-28T17:51:20.214Z,1.25
2022-07-28T17:53:48.755Z,1.45
2022-07-28T17:56:16.859Z,2.08
2022-07-28T17:58:44.335Z,1.52
2022-07-28T18:01:12.724Z,1.30
2022-07-28T18:03:56.691Z,1.65
2022-07-28T18:06:25.423Z,1.33
2022-07-28T18:08:52.358Z,1.60
2022-07-28T18:11:19.187Z,1.50
2022-07-28T18:14:04.508Z,1.20
2022-07-28T18:16:35.371Z,1.30
2022-07-28T18:19:05.206Z,1.60
2022-07-28T18:21:32.242Z,1.30
2022-07-28T18:24:01.823Z,1.30
2022-07-28T18:26:28.568Z,1.40
2022-07-28T18:28:55.522Z,1.40
2022-07-28T18:31:22.538Z,1.60
2022-07-28T18:33:49.464Z,1.40
2022-07-28T18:36:16.636Z,1.70
2022-07-28T18:38:43.815Z,1.40
2022-07-28T18:41:10.720Z,1.42
2022-07-28T18:43:37.484Z,1.60
2022-07-28T18:46:04.407Z,1.40
2022-07-28T18:48:31.217Z,1.27
2022-07-28T18:50:58.842Z,1.13
2022-07-28T18:53:26.610Z,1.42
2022-07-28T18:55:53.307Z,1.20
2022-07-28T18:58:20.155Z,1.27
2022-07-28T19:00:47.411Z,1.23
2022-07-28T19:03:14.243Z,1.30
2022-07-28T19:05:45.763Z,1.30
2022-07-28T19:08:13.195Z,1.40
2022-07-28T19:10:40.452Z,1.50
2022-07-28T19:13:12.779Z,1.40
2022-07-28T19:15:41.139Z,1.48
2022-07-28T19:18:10.407Z,1.45
2022-07-28T19:20:40.002Z,1.65
2022-07-28T19:23:07.079Z,1.52
2022-07-28T19:25:36.376Z,1.58
2022-07-28T19:28:04.561Z,1.15
2022-07-28T19:30:32.470Z,1.60
2022-07-28T19:33:00.269Z,1.45
2022-07-28T19:35:27.301Z,1.50
2022-07-28T19:37:56.418Z,1.42
2022-07-28T19:40:25.299Z,1.52
2022-07-28T19:42:53.426Z,1.60
2022-07-28T19:45:20.244Z,1.48
2022-07-28T19:47:47.328Z,1.35
2022-07-28T19:50:16.787Z,1.75
2022-07-28T19:52:43.567Z,1.60
2022-07-28T19:55:10.259Z,1.80
2022-07-28T19:57:37.200Z,1.13
2022-07-28T20:00:07.301Z,1.63
2022-07-28T20:02:34.371Z,1.65
2022-07-28T20:05:01.189Z,1.80
2022-07-28T20:07:29.143Z,1.60
2022-07-28T20:09:56.067Z,1.77
2022-07-28T20:12:22.883Z,1.63
2022-07-28T20:14:50.438Z,1.95
2022-07-28T20:17:37.039Z,2.17
2022-07-28T20:20:05.978Z,1.77
2022-07-28T20:22:32.894Z,1.50
2022-07-28T20:24:59.698Z,1.80
2022-07-28T20:27:26.694Z,1.83
2022-07-28T20:29:53.666Z,2.00
2022-07-28T20:32:20.569Z,2.03
2022-07-28T20:34:48.270Z,1.90
2022-07-28T20:37:24.513Z,2.10
2022-07-28T20:40:02.106Z,2.08
2022-07-28T20:42:28.820Z,1.63
2022-07-28T20:44:55.565Z,1.85
2022-07-28T20:47:23.338Z,1.90
2022-07-28T20:49:50.958Z,2.08
2022-07-28T20:52:17.874Z,2.38
2022-07-28T20:54:44.853Z,1.90
2022-07-28T20:57:11.924Z,2.33
2022-07-28T20:59:38.987Z,2.20
2022-07-28T21:02:05.981Z,2.13
2022-07-28T21:04:32.747Z,2.30
2022-07-28T21:07:02.178Z,2.25
2022-07-28T21:09:30.982Z,2.30
2022-07-28T21:11:57.834Z,2.38
2022-07-28T21:14:24.617Z,2.45
2022-07-28T21:16:51.436Z,2.67
2022-07-28T21:19:18.260Z,2.63
2022-07-28T21:21:45.085Z,2.08
2022-07-28T21:24:12.083Z,3.00
2022-07-28T21:26:41.988Z,2.58
2022-07-28T21:29:12.572Z,2.22
2022-07-28T21:32:04.811Z,2.65
2022-07-28T21:34:28.397Z,2.63
2022-07-28T21:36:55.600Z,2.50
2022-07-28T21:39:23.226Z,3.08
2022-07-28T21:41:49.909Z,3.10
2022-07-28T21:44:16.804Z,2.85
2022-07-28T21:46:45.699Z,2.33
2022-07-28T21:49:12.934Z,3.28
2022-07-28T21:51:39.991Z,2.58
2022-07-28T21:54:07.052Z,2.78
2022-07-28T21:56:34.433Z,3.13
2022-07-28T21:59:02.075Z,3.13
2022-07-28T22:01:28.928Z,3.28
2022-07-28T22:03:55.819Z,3.33
2022-07-28T22:06:23.206Z,3.00
2022-07-28T22:08:53.576Z,3.83
2022-07-28T22:11:22.311Z,2.75
2022-07-28T22:13:49.372Z,3.03
2022-07-28T22:16:16.198Z,3.10
2022-07-28T22:18:42.977Z,2.80
2022-07-28T22:21:09.884Z,3.30
2022-07-28T22:23:36.601Z,2.80
2022-07-28T22:26:03.732Z,2.63
2022-07-28T22:28:30.971Z,2.95
2022-07-28T22:30:59.000Z,3.20
2022-07-28T22:33:38.034Z,3.05
2022-07-28T22:36:06.631Z,3.03
2022-07-28T22:38:33.368Z,3.50
2022-07-28T22:41:00.179Z,2.70
2022-07-28T22:43:26.910Z,2.85
2022-07-28T22:45:53.891Z,3.20
2022-07-28T22:48:20.706Z,3.20
2022-07-28T22:50:47.429Z,3.30
2022-07-28T22:53:14.302Z,3.15
2022-07-28T22:55:41.115Z,3.33
2022-07-28T22:58:07.856Z,3.42
2022-07-28T23:00:36.484Z,3.45
2022-07-28T23:03:04.960Z,3.47
2022-07-28T23:05:32.197Z,3.35
2022-07-28T23:07:59.155Z,3.15
2022-07-28T23:10:26.503Z,2.75
2022-07-28T23:12:56.167Z,3.63
2022-07-28T23:15:40.411Z,3.17
2022-07-28T23:18:13.591Z,3.22
2022-07-28T23:20:41.121Z,3.33
2022-07-28T23:23:08.079Z,3.03
2022-07-28T23:25:42.935Z,3.33
2022-07-28T23:28:11.213Z,3.42
2022-07-28T23:30:38.478Z,3.42
2022-07-28T23:33:06.047Z,3.30
2022-07-28T23:35:33.836Z,3.53
2022-07-28T23:38:00.674Z,3.00
2022-07-28T23:40:27.703Z,3.15
2022-07-28T23:42:54.577Z,3.10
2022-07-28T23:45:21.503Z,3.47
2022-07-28T23:47:48.537Z,3.53
2022-07-28T23:50:15.500Z,2.97
2022-07-28T23:52:42.506Z,3.22
2022-07-28T23:55:09.598Z,3.53
2022-07-28T23:57:36.634Z,3.05
